Time;durP1;ratioP1;P1;durP2;ratioP2;P2;SDS_P1;SDS_P2;PMS_P1;PMS_P2;Temp;Humidity;BMP_temperature;BMP_pressure;BME280_temperature;BME280_humidity;BME280_pressure;Samples;Min_cycle;Max_cycle;Signal;HPM_P1;HPM_P2
2021/07/06 00:02:17;;;;;;;6.38;5.03;;;17.90;96.60;;;;;;5031737;28;20108;-66
2021/07/06 00:04:43;;;;;;;5.88;4.53;;;17.90;96.60;;;;;;5026136;28;20029;-66
2021/07/06 00:07:09;;;;;;;6.68;4.55;;;17.90;96.70;;;;;;5030152;28;20384;-66
2021/07/06 00:09:35;;;;;;;5.30;4.30;;;17.90;96.70;;;;;;5031951;28;20479;-66
2021/07/06 00:12:00;;;;;;;4.70;4.20;;;18.00;96.80;;;;;;5030744;28;20036;-66
2021/07/06 00:14:26;;;;;;;6.78;4.22;;;18.00;96.90;;;;;;5032384;28;20033;-66
2021/07/06 00:16:51;;;;;;;4.88;3.70;;;18.00;97.20;;;;;;5027048;28;20444;-66
2021/07/06 00:19:17;;;;;;;4.75;3.15;;;18.00;96.90;;;;;;5026894;28;20041;-66
2021/07/06 00:21:43;;;;;;;5.40;3.17;;;18.00;97.00;;;;;;5033079;28;20096;-66
2021/07/06 00:24:09;;;;;;;4.07;2.92;;;18.00;97.00;;;;;;5033098;28;20022;-66
2021/07/06 00:26:34;;;;;;;4.00;2.97;;;18.10;97.00;;;;;;5023672;28;20107;-65
2021/07/06 00:29:00;;;;;;;3.38;2.85;;;18.10;97.00;;;;;;5030312;28;20166;-65
2021/07/06 00:31:26;;;;;;;3.45;2.35;;;18.10;97.00;;;;;;5024119;28;20434;-65
2021/07/06 00:33:52;;;;;;;2.80;2.15;;;18.20;97.10;;;;;;5032596;28;20035;-65
2021/07/06 00:36:18;;;;;;;2.30;1.52;;;18.20;97.00;;;;;;5022533;28;20112;-65
2021/07/06 00:38:43;;;;;;;3.08;1.70;;;18.20;97.00;;;;;;5033118;28;20108;-65
2021/07/06 00:41:13;;;;;;;3.47;1.70;;;18.20;96.90;;;;;;5023451;28;20094;-65
2021/07/06 00:43:38;;;;;;;1.88;0.93;;;18.30;96.90;;;;;;5030379;28;20076;-65
2021/07/06 00:46:05;;;;;;;4.63;1.50;;;18.30;96.80;;;;;;5032642;28;20061;-65
2021/07/06 00:48:32;;;;;;;2.65;1.25;;;18.30;96.70;;;;;;5031285;28;20026;-65
2021/07/06 00:50:58;;;;;;;2.30;0.90;;;18.30;96.60;;;;;;5023026;28;20108;-65
2021/07/06 00:53:24;;;;;;;3.17;1.00;;;18.30;96.60;;;;;;5032745;28;20391;-65
2021/07/06 00:55:53;;;;;;;4.15;1.13;;;18.30;96.50;;;;;;5021820;28;20122;-65
2021/07/06 00:58:20;;;;;;;1.55;0.80;;;18.30;96.50;;;;;;5017831;28;20021;-65
2021/07/06 01:00:45;;;;;;;1.80;0.75;;;18.30;96.50;;;;;;5021945;28;20021;-65
2021/07/06 01:03:11;;;;;;;2.03;0.52;;;18.30;96.40;;;;;;5032509;28;20030;-65
2021/07/06 01:05:38;;;;;;;1.77;0.50;;;18.30;96.40;;;;;;5027472;28;20029;-65
2021/07/06 01:08:05;;;;;;;2.70;0.75;;;18.30;96.40;;;;;;5023431;28;20022;-65
2021/07/06 01:10:31;;;;;;;3.67;0.60;;;18.30;96.40;;;;;;5023796;28;20033;-65
2021/07/06 01:12:57;;;;;;;1.58;0.63;;;18.30;96.30;;;;;;5032577;28;20144;-65
2021/07/06 01:15:26;;;;;;;2.20;0.50;;;18.30;96.40;;;;;;5024806;28;20522;-65
2021/07/06 01:18:04;;;;;;;1.90;0.60;;;18.20;96.40;;;;;;5025183;28;20396;-65
2021/07/06 01:20:31;;;;;;;1.52;0.60;;;18.20;96.40;;;;;;5030162;28;20095;-65
2021/07/06 01:22:57;;;;;;;1.92;0.60;;;18.20;96.70;;;;;;5030636;28;20550;-65
2021/07/06 01:25:23;;;;;;;3.15;0.90;;;18.20;96.50;;;;;;5021848;28;20129;-65
2021/07/06 01:27:48;;;;;;;1.27;0.60;;;18.20;96.60;;;;;;5030262;28;20105;-65
2021/07/06 01:30:16;;;;;;;3.47;0.68;;;18.20;96.70;;;;;;5029211;28;20037;-65
2021/07/06 01:32:44;;;;;;;1.33;0.52;;;18.20;96.80;;;;;;5024727;28;20029;-65
2021/07/06 01:35:11;;;;;;;1.30;0.50;;;18.10;96.80;;;;;;5030116;28;20099;-65
2021/07/06 01:37:43;;;;;;;1.05;0.50;;;18.10;96.90;;;;;;5029107;28;20030;-65
2021/07/06 01:40:08;;;;;;;1.50;0.50;;;18.00;97.00;;;;;;5032086;28;20103;-65
2021/07/06 01:42:34;;;;;;;1.33;0.47;;;18.00;97.10;;;;;;5021716;28;20475;-65
2021/07/06 01:45:11;;;;;;;1.48;0.50;;;17.90;97.20;;;;;;5020043;28;20026;-65
2021/07/06 01:47:44;;;;;;;0.98;0.50;;;17.90;97.30;;;;;;5021752;28;20116;-65
2021/07/06 01:50:15;;;;;;;0.75;0.43;;;17.90;97.40;;;;;;5029682;28;20047;-65
2021/07/06 01:52:45;;;;;;;1.85;0.70;;;17.80;97.50;;;;;;5031422;28;20071;-65
2021/07/06 01:55:13;;;;;;;1.48;0.55;;;17.80;97.50;;;;;;5019568;28;20480;-65
2021/07/06 01:57:40;;;;;;;1.85;0.60;;;17.70;97.60;;;;;;5030505;28;20116;-66
2021/07/06 02:00:07;;;;;;;1.67;0.88;;;17.70;97.70;;;;;;5032730;28;20021;-65
2021/07/06 02:02:33;;;;;;;1.55;0.50;;;17.70;97.70;;;;;;5031210;28;20029;-65
2021/07/06 02:05:06;;;;;;;2.33;0.85;;;17.70;97.80;;;;;;5028184;28;20033;-65
2021/07/06 02:07:32;;;;;;;1.27;0.60;;;17.70;97.90;;;;;;5031846;28;20464;-65
2021/07/06 02:09:57;;;;;;;1.08;0.60;;;17.60;97.90;;;;;;5032327;28;20061;-65
2021/07/06 02:12:23;;;;;;;1.45;0.75;;;17.70;97.90;;;;;;5029223;28;20030;-65
2021/07/06 02:14:48;;;;;;;1.50;0.75;;;17.60;97.90;;;;;;5018201;28;20061;-66
2021/07/06 02:17:14;;;;;;;1.67;0.75;;;17.60;97.90;;;;;;5026678;28;20037;-65
2021/07/06 02:19:40;;;;;;;2.45;0.80;;;17.60;98.00;;;;;;5015915;28;20034;-65
2021/07/06 02:22:05;;;;;;;2.55;0.95;;;17.50;98.10;;;;;;5044834;28;20029;-65
2021/07/06 02:24:31;;;;;;;4.10;1.10;;;17.50;98.20;;;;;;5021943;28;20121;-65
2021/07/06 02:26:58;;;;;;;2.70;1.42;;;17.50;98.30;;;;;;5015154;28;20030;-65
2021/07/06 02:29:24;;;;;;;2.08;1.10;;;17.50;98.30;;;;;;5017886;28;20045;-66
2021/07/06 02:31:49;;;;;;;2.20;1.10;;;17.50;98.30;;;;;;5025705;28;20375;-65
2021/07/06 02:34:15;;;;;;;4.32;1.20;;;17.50;98.40;;;;;;5029888;28;20033;-66
2021/07/06 02:36:40;;;;;;;1.58;0.82;;;17.50;98.40;;;;;;5024298;28;20104;-66
2021/07/06 02:39:06;;;;;;;2.63;1.42;;;17.40;98.40;;;;;;5034016;28;20029;-66
2021/07/06 02:41:31;;;;;;;1.63;1.02;;;17.40;98.50;;;;;;5029433;28;20048;-66
2021/07/06 02:43:57;;;;;;;2.08;1.10;;;17.30;98.50;;;;;;5029096;28;20029;-66
2021/07/06 02:46:23;;;;;;;1.95;1.20;;;17.30;98.50;;;;;;5031555;28;20025;-66
2021/07/06 02:48:48;;;;;;;2.28;1.13;;;17.30;98.60;;;;;;5024743;28;20071;-65
2021/07/06 02:51:14;;;;;;;1.65;0.90;;;17.30;98.70;;;;;;5033143;28;20038;-66
2021/07/06 02:53:39;;;;;;;2.67;1.20;;;17.20;98.70;;;;;;5030238;28;20108;-66
2021/07/06 02:56:05;;;;;;;3.15;1.17;;;17.20;98.70;;;;;;5034430;28;20480;-65
2021/07/06 02:58:30;;;;;;;1.55;1.13;;;17.20;98.80;;;;;;5024279;28;20510;-66
2021/07/06 03:00:56;;;;;;;1.45;0.80;;;17.20;98.80;;;;;;5032195;28;20375;-66
2021/07/06 03:03:21;;;;;;;2.97;1.23;;;17.20;98.80;;;;;;5018647;28;20153;-66
2021/07/06 03:05:47;;;;;;;2.95;1.10;;;17.20;98.90;;;;;;5034548;28;20030;-66
2021/07/06 03:08:12;;;;;;;1.20;0.80;;;17.20;98.90;;;;;;5016549;28;20503;-65
2021/07/06 03:10:39;;;;;;;3.00;1.10;;;17.20;98.90;;;;;;5023299;28;20098;-66
2021/07/06 03:13:05;;;;;;;1.77;0.73;;;17.20;98.80;;;;;;5024624;28;20026;-66
2021/07/06 03:15:31;;;;;;;2.95;1.13;;;17.20;98.80;;;;;;5033279;28;20052;-66
2021/07/06 03:17:59;;;;;;;2.10;0.85;;;17.30;98.80;;;;;;5028706;28;20033;-66
2021/07/06 03:20:26;;;;;;;1.77;0.82;;;17.30;98.80;;;;;;5032730;28;20418;-66
2021/07/06 03:22:52;;;;;;;3.75;0.90;;;17.30;98.80;;;;;;5025969;28;20033;-66
2021/07/06 03:25:19;;;;;;;2.03;0.90;;;17.30;98.80;;;;;;5029455;28;20025;-66
2021/07/06 03:27:45;;;;;;;2.53;0.90;;;17.20;98.80;;;;;;5024143;28;20166;-66
2021/07/06 03:30:17;;;;;;;1.83;0.93;;;17.20;98.80;;;;;;5030777;28;20040;-66
2021/07/06 03:32:42;;;;;;;1.48;0.63;;;17.20;98.80;;;;;;5029659;28;20049;-66
2021/07/06 03:35:10;;;;;;;2.35;0.60;;;17.20;98.80;;;;;;5035075;28;20476;-66
2021/07/06 03:37:36;;;;;;;1.90;0.75;;;17.30;98.80;;;;;;5030794;28;20088;-66
2021/07/06 03:40:04;;;;;;;0.82;0.60;;;17.30;98.80;;;;;;5034262;28;20057;-66
2021/07/06 03:42:29;;;;;;;1.90;0.60;;;17.30;98.80;;;;;;5030951;28;20041;-66
2021/07/06 03:44:55;;;;;;;1.73;0.93;;;17.30;98.70;;;;;;5019369;28;20026;-67
2021/07/06 03:47:20;;;;;;;1.40;0.60;;;17.30;98.70;;;;;;5026678;28;20029;-67
2021/07/06 03:49:46;;;;;;;2.05;0.60;;;17.30;98.70;;;;;;5023310;28;20033;-67
2021/07/06 03:52:11;;;;;;;2.13;0.50;;;17.30;98.70;;;;;;5032060;28;20029;-67
2021/07/06 03:54:37;;;;;;;1.17;0.60;;;17.30;98.70;;;;;;5027357;28;20439;-67
2021/07/06 03:57:02;;;;;;;1.42;0.63;;;17.30;98.70;;;;;;5030385;28;20060;-67
2021/07/06 03:59:28;;;;;;;1.15;0.50;;;17.40;98.70;;;;;;5032298;28;20040;-67
2021/07/06 04:01:54;;;;;;;2.15;0.50;;;17.40;98.60;;;;;;5025815;28;20044;-67
2021/07/06 04:04:19;;;;;;;2.95;1.10;;;17.40;98.60;;;;;;5030772;28;20513;-67
2021/07/06 04:06:45;;;;;;;1.05;0.60;;;17.50;98.60;;;;;;5026177;28;20022;-67
2021/07/06 04:09:11;;;;;;;1.00;0.60;;;17.50;98.60;;;;;;5023113;28;20018;-67
2021/07/06 04:11:36;;;;;;;1.85;0.60;;;17.60;98.50;;;;;;5023230;28;20041;-67
2021/07/06 04:14:03;;;;;;;2.35;0.60;;;17.60;98.40;;;;;;5025536;28;20025;-67
2021/07/06 04:16:29;;;;;;;2.30;0.50;;;17.70;98.30;;;;;;5021808;28;20643;-67
2021/07/06 04:18:54;;;;;;;2.30;0.80;;;17.70;98.30;;;;;;5027897;28;20036;-67
2021/07/06 04:21:20;;;;;;;1.80;0.50;;;17.80;98.20;;;;;;5026794;28;20044;-67
2021/07/06 04:23:45;;;;;;;2.00;0.52;;;17.80;98.20;;;;;;5026354;28;20065;-66
2021/07/06 04:26:11;;;;;;;5.70;0.90;;;17.80;98.10;;;;;;5021256;28;20030;-66
2021/07/06 04:28:36;;;;;;;2.83;0.70;;;17.90;98.10;;;;;;5028863;28;20638;-66
2021/07/06 04:31:03;;;;;;;7.85;0.80;;;17.90;98.10;;;;;;5035021;28;20033;-66
2021/07/06 04:33:28;;;;;;;1.70;0.63;;;17.80;98.10;;;;;;5029909;28;20052;-67
2021/07/06 04:35:54;;;;;;;1.80;0.65;;;17.80;98.10;;;;;;5030325;28;20476;-66
2021/07/06 04:38:20;;;;;;;3.20;0.60;;;17.80;98.20;;;;;;5026450;28;20440;-65
2021/07/06 04:40:45;;;;;;;1.17;0.52;;;17.90;98.20;;;;;;5031422;28;20029;-66
2021/07/06 04:43:12;;;;;;;4.13;0.70;;;17.90;98.20;;;;;;5031608;28;20025;-66
2021/07/06 04:45:38;;;;;;;0.77;0.40;;;18.00;98.10;;;;;;5033136;28;20025;-66
2021/07/06 04:48:04;;;;;;;5.88;0.82;;;18.00;98.00;;;;;;5027924;28;20040;-66
2021/07/06 04:50:34;;;;;;;3.47;0.50;;;18.10;97.90;;;;;;5024971;28;20488;-66
2021/07/06 04:53:00;;;;;;;4.82;0.50;;;18.10;97.80;;;;;;5018700;28;20071;-66
2021/07/06 04:55:26;;;;;;;3.75;0.60;;;18.20;97.70;;;;;;5026187;28;20029;-66
2021/07/06 04:57:51;;;;;;;2.28;0.50;;;18.30;97.70;;;;;;5019274;28;20485;-66
2021/07/06 05:00:18;;;;;;;1.75;0.40;;;18.40;97.40;;;;;;5024299;28;20051;-63
2021/07/06 05:02:45;;;;;;;1.25;0.40;;;18.50;97.10;;;;;;5029761;28;20025;-64
2021/07/06 05:05:11;;;;;;;2.95;0.50;;;18.60;96.90;;;;;;5029802;28;20029;-64
2021/07/06 05:07:37;;;;;;;2.83;0.57;;;18.70;96.70;;;;;;5032062;28;20060;-64
2021/07/06 05:10:11;;;;;;;1.70;0.52;;;18.70;96.50;;;;;;5020732;28;20069;-64
2021/07/06 05:12:37;;;;;;;3.00;0.40;;;18.80;96.30;;;;;;5030860;28;20021;-64
2021/07/06 05:15:04;;;;;;;1.52;0.40;;;18.80;96.20;;;;;;5027470;28;20042;-63
2021/07/06 05:17:30;;;;;;;3.03;0.40;;;18.80;96.00;;;;;;5033548;28;20038;-65
2021/07/06 05:19:56;;;;;;;1.33;0.50;;;18.90;96.00;;;;;;5021470;28;20400;-65
2021/07/06 05:22:22;;;;;;;1.73;0.40;;;18.90;96.00;;;;;;5030681;28;20471;-65
2021/07/06 05:24:48;;;;;;;2.67;0.30;;;18.90;96.00;;;;;;5029021;28;20029;-65
2021/07/06 05:27:14;;;;;;;1.00;0.55;;;18.80;95.90;;;;;;5030665;28;20017;-66
2021/07/06 05:29:39;;;;;;;2.97;0.70;;;18.90;95.90;;;;;;5026859;28;20037;-66
2021/07/06 05:32:05;;;;;;;1.70;0.50;;;18.90;95.80;;;;;;5025489;28;20024;-66
2021/07/06 05:34:31;;;;;;;2.60;0.40;;;18.90;95.60;;;;;;5021821;28;20033;-66
2021/07/06 05:36:57;;;;;;;1.55;0.40;;;19.00;95.60;;;;;;5029657;28;20033;-66
2021/07/06 05:39:22;;;;;;;1.92;0.30;;;19.00;95.50;;;;;;5026599;28;20387;-66
2021/07/06 05:41:48;;;;;;;4.45;0.40;;;19.10;95.40;;;;;;5028278;28;20542;-66
2021/07/06 05:44:14;;;;;;;3.88;0.50;;;19.10;95.20;;;;;;5031317;28;20022;-67
2021/07/06 05:46:40;;;;;;;2.75;0.40;;;19.20;95.20;;;;;;5028716;28;20159;-66
2021/07/06 05:49:06;;;;;;;3.47;0.60;;;19.20;95.20;;;;;;5025114;28;20494;-66
2021/07/06 05:51:32;;;;;;;1.10;0.40;;;19.20;95.10;;;;;;5020626;28;20029;-66
2021/07/06 05:53:57;;;;;;;2.03;0.50;;;19.20;95.10;;;;;;5022546;28;20102;-66
2021/07/06 05:56:23;;;;;;;2.90;0.75;;;19.30;95.10;;;;;;5020689;28;20476;-65
2021/07/06 05:58:49;;;;;;;3.90;0.40;;;19.30;95.10;;;;;;5023486;28;20136;-66
2021/07/06 06:01:15;;;;;;;2.28;0.50;;;19.30;95.10;;;;;;5029068;28;20496;-65
2021/07/06 06:03:41;;;;;;;1.77;0.52;;;19.30;95.10;;;;;;5030504;28;20112;-66
2021/07/06 06:06:10;;;;;;;2.45;0.50;;;19.40;95.10;;;;;;5024655;28;20160;-64
2021/07/06 06:08:36;;;;;;;1.73;0.63;;;19.40;95.00;;;;;;5027040;28;20034;-65
2021/07/06 06:11:04;;;;;;;1.90;0.40;;;19.40;95.10;;;;;;5027333;28;20049;-65
2021/07/06 06:13:29;;;;;;;2.88;0.70;;;19.40;95.10;;;;;;5030438;28;20029;-65
2021/07/06 06:15:55;;;;;;;1.88;0.60;;;19.40;95.10;;;;;;5032893;28;20046;-65
2021/07/06 06:18:21;;;;;;;5.10;0.50;;;19.40;95.10;;;;;;5027747;28;20021;-65
2021/07/06 06:20:46;;;;;;;1.55;0.50;;;19.40;95.10;;;;;;5016687;28;20025;-65
2021/07/06 06:23:12;;;;;;;1.83;0.40;;;19.40;95.10;;;;;;5025805;28;20402;-65
2021/07/06 06:25:38;;;;;;;2.47;0.50;;;19.50;95.40;;;;;;5035587;28;20028;-65
2021/07/06 06:28:04;;;;;;;2.65;0.50;;;19.50;95.10;;;;;;5032596;28;20379;-65
2021/07/06 06:30:29;;;;;;;2.45;0.50;;;19.50;95.10;;;;;;5024031;28;20021;-65
2021/07/06 06:32:55;;;;;;;1.05;0.35;;;19.60;95.00;;;;;;5021188;28;20030;-65
2021/07/06 06:35:22;;;;;;;2.13;0.50;;;19.50;94.90;;;;;;5016853;28;20032;-66
2021/07/06 06:37:47;;;;;;;1.52;0.60;;;19.60;95.00;;;;;;5030646;28;20463;-65
2021/07/06 06:40:13;;;;;;;3.17;0.60;;;19.60;95.00;;;;;;5027369;28;20109;-66
2021/07/06 06:42:39;;;;;;;1.88;0.57;;;19.60;95.00;;;;;;5034508;28;20029;-65
2021/07/06 06:45:06;;;;;;;1.30;0.40;;;19.70;95.00;;;;;;5027306;28;20510;-67
2021/07/06 06:47:33;;;;;;;1.67;0.50;;;19.70;95.00;;;;;;5035586;28;20099;-65
2021/07/06 06:49:59;;;;;;;1.67;0.40;;;19.70;95.00;;;;;;5026874;28;20104;-65
2021/07/06 06:52:25;;;;;;;2.20;0.60;;;19.70;95.00;;;;;;5029639;28;20213;-66
2021/07/06 06:54:50;;;;;;;3.05;0.50;;;19.80;95.00;;;;;;5028702;28;20506;-65
2021/07/06 06:57:16;;;;;;;2.40;0.52;;;19.80;95.00;;;;;;5029671;28;20040;-66
2021/07/06 06:59:41;;;;;;;4.93;0.40;;;19.80;95.00;;;;;;5030158;28;20476;-66
2021/07/06 07:02:22;;;;;;;4.75;0.43;;;19.80;94.90;;;;;;5024212;28;20080;-65
2021/07/06 07:04:50;;;;;;;4.55;0.50;;;19.90;94.90;;;;;;5021588;28;20449;-66
2021/07/06 07:07:16;;;;;;;2.78;0.40;;;20.00;94.70;;;;;;5020593;28;20022;-65
2021/07/06 07:09:43;;;;;;;2.85;0.43;;;20.00;94.70;;;;;;5020526;28;20042;-65
2021/07/06 07:12:09;;;;;;;2.33;0.50;;;20.10;94.60;;;;;;5021688;28;20534;-65
2021/07/06 07:14:35;;;;;;;5.07;0.40;;;20.20;94.50;;;;;;5031981;28;20037;-65
2021/07/06 07:17:08;;;;;;;1.58;0.40;;;20.20;94.30;;;;;;5033127;28;20103;-65
2021/07/06 07:19:34;;;;;;;1.23;0.30;;;20.30;94.10;;;;;;5033178;28;20056;-65
2021/07/06 07:22:01;;;;;;;2.75;0.57;;;20.30;93.90;;;;;;5029074;28;20067;-66
2021/07/06 07:24:29;;;;;;;0.63;0.30;;;20.40;93.70;;;;;;5032806;28;20037;-67
2021/07/06 07:26:55;;;;;;;1.75;0.35;;;20.30;93.50;;;;;;5032105;28;20538;-65
2021/07/06 07:29:21;;;;;;;0.98;0.30;;;20.40;93.20;;;;;;5031870;28;20037;-66
2021/07/06 07:31:46;;;;;;;1.92;0.30;;;20.40;93.10;;;;;;5034202;28;20479;-67
2021/07/06 07:34:12;;;;;;;1.98;0.68;;;20.40;93.00;;;;;;5035394;28;20056;-65
2021/07/06 07:36:41;;;;;;;0.73;0.20;;;20.40;92.70;;;;;;5032259;28;20116;-67
2021/07/06 07:39:08;;;;;;;0.63;0.22;;;20.50;92.50;;;;;;5026676;28;20503;-67
2021/07/06 07:41:33;;;;;;;0.82;0.22;;;20.50;92.40;;;;;;5033070;28;20037;-66
2021/07/06 07:43:59;;;;;;;1.17;0.30;;;20.50;92.10;;;;;;5030039;28;20040;-67
2021/07/06 07:46:26;;;;;;;0.73;0.28;;;20.60;92.00;;;;;;5026937;28;20423;-66
2021/07/06 07:48:52;;;;;;;0.93;0.20;;;20.70;91.90;;;;;;5014936;28;20030;-66
2021/07/06 07:51:18;;;;;;;0.82;0.20;;;20.70;91.80;;;;;;5029809;28;20021;-65
2021/07/06 07:53:44;;;;;;;0.77;0.20;;;20.70;91.70;;;;;;5029868;28;20416;-66
2021/07/06 07:56:11;;;;;;;1.15;0.20;;;20.80;91.50;;;;;;5026684;28;20029;-67
2021/07/06 07:58:36;;;;;;;1.80;0.30;;;20.70;91.40;;;;;;5032001;28;20034;-67
2021/07/06 08:01:02;;;;;;;1.05;0.35;;;20.70;91.30;;;;;;5031883;28;20051;-67
2021/07/06 08:03:28;;;;;;;2.45;0.20;;;20.70;91.30;;;;;;5027588;28;20156;-67
2021/07/06 08:05:54;;;;;;;1.92;0.30;;;20.70;90.90;;;;;;5027898;28;20101;-67
2021/07/06 08:08:19;;;;;;;0.82;0.20;;;20.70;90.90;;;;;;5031700;28;20033;-67
2021/07/06 08:10:51;;;;;;;0.73;0.20;;;20.70;90.50;;;;;;5019726;28;20025;-67
2021/07/06 08:13:18;;;;;;;1.30;0.20;;;20.70;90.60;;;;;;5027998;28;20038;-67
2021/07/06 08:15:43;;;;;;;1.00;0.20;;;20.80;90.40;;;;;;5031704;28;20052;-67
2021/07/06 08:18:09;;;;;;;1.35;0.20;;;21.00;90.20;;;;;;5028795;28;20108;-67
2021/07/06 08:20:34;;;;;;;1.30;0.30;;;21.10;89.50;;;;;;5027210;28;20065;-67
2021/07/06 08:23:00;;;;;;;0.98;0.20;;;21.30;88.10;;;;;;5038496;28;20383;-68
2021/07/06 08:25:26;;;;;;;0.73;0.20;;;21.40;87.20;;;;;;5031753;28;20443;-67
2021/07/06 08:27:51;;;;;;;1.55;0.20;;;21.50;86.70;;;;;;5033166;28;20468;-68
2021/07/06 08:30:17;;;;;;;2.47;0.20;;;21.60;86.10;;;;;;5030552;28;20026;-67
2021/07/06 08:32:43;;;;;;;1.67;0.20;;;21.70;85.30;;;;;;5032962;28;20048;-67
2021/07/06 08:35:10;;;;;;;1.02;0.20;;;21.50;84.20;;;;;;5028122;28;20084;-66
2021/07/06 08:37:36;;;;;;;0.85;0.20;;;21.50;84.90;;;;;;5035865;28;20044;-68
2021/07/06 08:40:03;;;;;;;1.60;0.25;;;21.50;85.10;;;;;;5033708;28;20028;-67
2021/07/06 08:42:30;;;;;;;0.65;0.20;;;21.50;84.50;;;;;;5031313;28;20168;-67
2021/07/06 08:44:55;;;;;;;6.38;0.20;;;21.60;84.40;;;;;;5033603;28;20159;-68
2021/07/06 08:47:23;;;;;;;1.20;0.30;;;21.70;84.60;;;;;;5032674;28;20487;-66
2021/07/06 08:49:51;;;;;;;3.58;0.28;;;22.00;83.50;;;;;;5033397;28;20108;-67
2021/07/06 08:52:18;;;;;;;1.70;0.20;;;22.10;83.10;;;;;;5024920;28;20033;-67
2021/07/06 08:54:47;;;;;;;0.43;0.20;;;22.30;82.50;;;;;;5033189;28;20044;-67
2021/07/06 08:57:21;;;;;;;3.17;0.20;;;22.50;82.10;;;;;;5032684;28;20040;-67
2021/07/06 08:59:48;;;;;;;2.17;0.22;;;22.60;81.20;;;;;;5028036;28;20191;-66
2021/07/06 09:02:14;;;;;;;4.05;0.25;;;22.50;80.50;;;;;;5031996;28;20033;-67
2021/07/06 09:04:50;;;;;;;0.93;0.20;;;22.50;81.20;;;;;;5029172;28;20033;-67
2021/07/06 09:07:16;;;;;;;1.70;0.20;;;22.60;81.00;;;;;;5031769;28;20041;-68
2021/07/06 09:09:42;;;;;;;1.63;0.20;;;22.70;81.20;;;;;;5025349;28;20037;-66
2021/07/06 09:12:10;;;;;;;1.33;0.25;;;22.80;79.60;;;;;;5030723;28;20033;-66
2021/07/06 09:14:48;;;;;;;1.27;0.30;;;22.70;79.00;;;;;;5028707;28;20029;-66
2021/07/06 09:17:24;;;;;;;1.80;0.20;;;22.80;79.80;;;;;;5029660;28;20029;-67
2021/07/06 09:19:56;;;;;;;2.03;0.30;;;22.90;79.30;;;;;;5021860;28;20490;-66
2021/07/06 09:22:25;;;;;;;0.65;0.22;;;22.90;79.60;;;;;;5032465;28;20033;-66
2021/07/06 09:25:08;;;;;;;1.25;0.30;;;23.00;77.90;;;;;;5031438;28;20364;-66
2021/07/06 09:27:42;;;;;;;1.00;0.20;;;22.90;77.00;;;;;;5032838;28;20025;-65
2021/07/06 09:30:18;;;;;;;2.65;0.30;;;22.90;77.80;;;;;;5032094;28;20264;-65
2021/07/06 09:32:45;;;;;;;2.08;0.28;;;22.80;77.40;;;;;;5033178;28;20024;-65
2021/07/06 09:35:13;;;;;;;1.27;0.20;;;22.70;76.70;;;;;;5030073;28;20101;-66
2021/07/06 09:37:44;;;;;;;2.20;0.20;;;22.70;76.70;;;;;;5032208;28;20029;-65
2021/07/06 09:40:24;;;;;;;1.65;0.30;;;22.80;76.90;;;;;;5032659;28;20029;-65
2021/07/06 09:43:21;;;;;;;2.17;0.30;;;22.80;73.70;;;;;;5030656;28;20472;-66
2021/07/06 09:46:08;;;;;;;2.92;0.38;;;22.50;73.50;;;;;;5031897;28;20072;-66
2021/07/06 09:48:36;;;;;;;1.52;0.17;;;22.30;73.40;;;;;;5035985;28;20029;-66
2021/07/06 09:51:23;;;;;;;4.05;0.20;;;22.10;73.00;;;;;;5036948;28;20043;-66
2021/07/06 09:53:53;;;;;;;2.58;0.38;;;21.90;73.30;;;;;;5031213;28;20032;-65
2021/07/06 09:56:24;;;;;;;2.85;0.30;;;21.80;75.50;;;;;;5031009;28;20030;-67
2021/07/06 09:58:51;;;;;;;1.92;0.20;;;21.90;75.70;;;;;;5031506;28;20021;-66
2021/07/06 10:01:17;;;;;;;3.45;0.55;;;22.10;76.40;;;;;;5035542;28;20038;-68
2021/07/06 10:03:43;;;;;;;2.15;0.30;;;22.30;76.70;;;;;;5036151;28;20029;-67
2021/07/06 10:06:10;;;;;;;1.75;0.20;;;22.40;76.40;;;;;;5033471;28;20239;-68
2021/07/06 10:08:36;;;;;;;1.10;0.13;;;22.70;76.20;;;;;;5033969;28;20419;-68
2021/07/06 10:11:01;;;;;;;2.38;0.30;;;22.80;74.40;;;;;;5035481;28;20032;-66
2021/07/06 10:13:27;;;;;;;3.08;0.20;;;22.80;73.90;;;;;;5030880;28;20391;-67
2021/07/06 10:15:53;;;;;;;2.47;0.30;;;22.90;74.40;;;;;;5035860;28;20103;-67
2021/07/06 10:18:22;;;;;;;1.30;0.20;;;22.90;73.30;;;;;;5036370;28;20431;-66
2021/07/06 10:20:48;;;;;;;1.40;0.20;;;22.90;73.50;;;;;;5029496;28;20030;-67
2021/07/06 10:23:14;;;;;;;1.45;0.30;;;22.90;72.80;;;;;;5021927;28;20048;-67
2021/07/06 10:25:40;;;;;;;2.22;0.40;;;23.00;72.10;;;;;;5026171;28;20717;-66
2021/07/06 10:28:14;;;;;;;3.22;0.47;;;22.90;72.30;;;;;;5026540;28;20032;-66
2021/07/06 10:30:42;;;;;;;2.28;0.45;;;22.80;72.10;;;;;;5023615;28;20037;-68
2021/07/06 10:33:16;;;;;;;1.95;0.30;;;22.60;71.70;;;;;;5032603;28;20021;-67
2021/07/06 10:35:41;;;;;;;1.63;0.20;;;22.40;72.50;;;;;;5024853;28;20071;-66
2021/07/06 10:38:29;;;;;;;4.43;0.30;;;22.30;72.00;;;;;;5035960;28;20025;-66
2021/07/06 10:40:56;;;;;;;2.95;0.40;;;22.30;72.20;;;;;;5020884;28;20030;-66
2021/07/06 10:43:37;;;;;;;2.30;0.30;;;22.40;72.50;;;;;;5016230;28;20030;-66
2021/07/06 10:46:21;;;;;;;2.40;0.20;;;22.50;71.70;;;;;;5033555;28;20029;-66
2021/07/06 10:49:06;;;;;;;1.60;0.30;;;22.70;71.50;;;;;;5035304;28;20025;-66
2021/07/06 10:51:35;;;;;;;2.83;0.30;;;22.70;70.00;;;;;;5035012;28;20053;-66
2021/07/06 10:54:20;;;;;;;1.48;0.20;;;22.80;71.30;;;;;;5034571;28;20049;-66
2021/07/06 10:56:47;;;;;;;3.38;0.30;;;23.00;68.60;;;;;;5030348;28;20022;-66
2021/07/06 10:59:30;;;;;;;5.22;0.20;;;23.00;65.30;;;;;;5016111;28;20042;-66
2021/07/06 11:02:07;;;;;;;5.22;1.15;;;23.10;65.10;;;;;;5031852;28;20116;-66
2021/07/06 11:04:50;;;;;;;7.43;0.40;;;23.20;65.70;;;;;;5035456;28;20033;-66
2021/07/06 11:07:28;;;;;;;4.75;0.40;;;23.20;65.20;;;;;;5027165;28;20018;-65
2021/07/06 11:09:56;;;;;;;4.60;0.40;;;23.00;64.60;;;;;;5019446;28;20026;-68
2021/07/06 11:12:29;;;;;;;4.80;0.32;;;22.60;64.70;;;;;;5028624;28;20068;-67
2021/07/06 11:15:04;;;;;;;3.72;0.30;;;22.30;65.20;;;;;;5028094;28;20144;-66
2021/07/06 11:17:38;;;;;;;2.70;0.30;;;22.30;67.20;;;;;;5029857;28;20479;-67
2021/07/06 11:20:07;;;;;;;4.40;0.40;;;22.50;66.80;;;;;;5023926;28;20120;-67
2021/07/06 11:22:45;;;;;;;1.42;0.20;;;22.70;66.30;;;;;;5032898;28;20103;-67
2021/07/06 11:25:20;;;;;;;5.20;0.70;;;22.90;64.30;;;;;;5018577;28;20053;-66
2021/07/06 11:27:58;;;;;;;3.25;0.40;;;22.80;62.30;;;;;;5032919;28;20049;-67
2021/07/06 11:30:33;;;;;;;3.17;0.32;;;22.70;61.90;;;;;;5031817;28;20487;-67
2021/07/06 11:33:07;;;;;;;1.92;0.20;;;22.50;62.90;;;;;;5021756;28;20034;-66
2021/07/06 11:35:38;;;;;;;6.47;0.45;;;22.40;63.60;;;;;;5020659;28;20029;-67
2021/07/06 11:38:13;;;;;;;5.68;0.30;;;22.40;61.80;;;;;;5020695;28;20030;-67
2021/07/06 11:40:42;;;;;;;3.58;0.28;;;22.20;61.30;;;;;;5033270;28;20037;-67
2021/07/06 11:43:10;;;;;;;5.53;0.43;;;22.00;62.30;;;;;;5034775;28;20026;-67
2021/07/06 11:45:37;;;;;;;3.72;0.30;;;22.00;63.50;;;;;;5033960;28;20033;-67
2021/07/06 11:48:10;;;;;;;4.63;0.30;;;22.10;62.70;;;;;;5031247;28;20029;-66
2021/07/06 11:50:36;;;;;;;2.97;0.20;;;22.10;62.50;;;;;;5024584;28;20026;-69
2021/07/06 11:53:03;;;;;;;3.65;0.28;;;22.10;62.10;;;;;;5023352;28;20049;-68
2021/07/06 11:55:31;;;;;;;6.57;0.32;;;22.30;62.00;;;;;;5027125;28;20072;-66
2021/07/06 11:57:58;;;;;;;5.78;0.25;;;22.40;61.50;;;;;;5017801;28;20024;-66
2021/07/06 12:00:26;;;;;;;4.20;0.20;;;22.40;61.10;;;;;;5033547;28;20026;-67
2021/07/06 12:03:28;;;;;;;3.65;0.50;;;22.50;60.70;;;;;;5033451;28;20033;-67
2021/07/06 12:06:07;;;;;;;7.18;0.30;;;22.50;61.00;;;;;;5019157;28;20025;-66
2021/07/06 12:08:43;;;;;;;5.05;0.30;;;22.50;60.40;;;;;;5034239;28;20029;-66
2021/07/06 12:11:10;;;;;;;3.78;0.47;;;22.70;61.20;;;;;;5017359;28;20021;-68
2021/07/06 12:13:50;;;;;;;4.50;0.30;;;22.80;60.30;;;;;;5034590;28;20022;-68
2021/07/06 12:16:27;;;;;;;2.10;0.20;;;22.90;59.30;;;;;;5033035;28;20040;-66
2021/07/06 12:19:06;;;;;;;4.70;0.40;;;22.90;59.10;;;;;;5034003;28;20483;-67
2021/07/06 12:21:39;;;;;;;2.75;0.20;;;22.90;59.40;;;;;;5026671;28;20049;-67
2021/07/06 12:24:16;;;;;;;3.30;0.15;;;23.00;59.60;;;;;;5025636;28;20038;-69
2021/07/06 12:27:14;;;;;;;1.55;0.20;;;23.30;59.50;;;;;;5026153;28;20492;-69
2021/07/06 12:30:02;;;;;;;3.17;0.40;;;23.40;59.80;;;;;;5026087;28;20037;-70
2021/07/06 12:32:39;;;;;;;4.47;0.30;;;23.70;58.80;;;;;;5027905;28;20062;-69
2021/07/06 12:35:19;;;;;;;4.22;0.40;;;23.60;58.20;;;;;;5031495;28;20057;-68
2021/07/06 12:38:01;;;;;;;1.77;0.38;;;23.40;57.60;;;;;;5030927;28;20069;-69
2021/07/06 12:40:35;;;;;;;2.65;0.20;;;23.30;57.40;;;;;;5029910;28;20056;-69
2021/07/06 12:43:26;;;;;;;3.17;0.30;;;23.20;58.00;;;;;;5030557;28;20076;-69
2021/07/06 12:46:13;;;;;;;1.70;0.30;;;23.10;57.90;;;;;;5016927;28;20156;-70
2021/07/06 12:49:00;;;;;;;2.15;0.20;;;23.00;58.50;;;;;;5032083;28;20029;-69
2021/07/06 12:51:35;;;;;;;3.45;0.40;;;23.00;58.90;;;;;;5032269;28;20026;-69
2021/07/06 12:54:25;;;;;;;4.22;0.40;;;23.10;58.30;;;;;;5032071;28;20037;-69
2021/07/06 12:57:09;;;;;;;2.47;0.30;;;22.90;57.70;;;;;;5030090;28;20029;-69